createdAt,value
2018-12-20T00:00:19.863Z,36.10
2018-12-20T00:02:47.438Z,32.13
2018-12-20T00:05:14.924Z,35.43
2018-12-20T00:07:42.411Z,33.40
2018-12-20T00:10:10.200Z,36.80
2018-12-20T00:12:38.199Z,37.97
2018-12-20T00:15:06.387Z,37.33
2018-12-20T00:17:48.362Z,36.97
2018-12-20T00:20:15.929Z,36.93
2018-12-20T00:22:43.761Z,30.57
2018-12-20T00:25:11.296Z,38.77
2018-12-20T00:27:38.917Z,32.37
2018-12-20T00:30:06.800Z,37.70
2018-12-20T00:32:34.459Z,34.60
2018-12-20T00:35:02.073Z,34.63
2018-12-20T00:37:29.927Z,41.70
2018-12-20T00:39:57.600Z,34.10
2018-12-20T00:42:25.318Z,35.53
2018-12-20T00:44:52.928Z,34.03
2018-12-20T00:47:20.497Z,34.60
2018-12-20T00:49:47.997Z,37.07
2018-12-20T00:52:15.483Z,33.03
2018-12-20T00:54:42.960Z,39.80
2018-12-20T00:57:10.444Z,31.43
2018-12-20T00:59:38.120Z,35.20
2018-12-20T01:02:05.718Z,38.90
2018-12-20T01:04:33.384Z,31.30
2018-12-20T01:07:00.935Z,42.80
2018-12-20T01:09:28.571Z,40.50
2018-12-20T01:11:56.200Z,32.97
2018-12-20T01:14:23.766Z,30.67
2018-12-20T01:16:51.510Z,40.93
2018-12-20T01:19:19.021Z,38.07
2018-12-20T01:21:46.582Z,35.57
2018-12-20T01:24:14.084Z,34.73
2018-12-20T01:26:41.601Z,36.00
2018-12-20T01:29:09.176Z,34.40
2018-12-20T01:31:36.860Z,34.07
2018-12-20T01:34:04.559Z,36.90
2018-12-20T01:36:32.139Z,40.73
2018-12-20T01:38:59.683Z,34.03
2018-12-20T01:41:27.209Z,36.80
2018-12-20T01:43:54.904Z,35.83
2018-12-20T01:46:22.484Z,36.60
2018-12-20T01:48:50.107Z,38.63
2018-12-20T01:51:17.744Z,41.53
2018-12-20T01:53:45.445Z,35.83
2018-12-20T01:56:13.095Z,39.43
2018-12-20T01:58:40.745Z,39.33
2018-12-20T02:01:08.319Z,36.43
2018-12-20T02:03:35.893Z,37.70
2018-12-20T02:06:03.557Z,36.40
2018-12-20T02:08:31.265Z,35.80
2018-12-20T02:10:58.865Z,44.87
2018-12-20T02:13:26.532Z,41.33
2018-12-20T02:15:54.029Z,36.50
2018-12-20T02:18:21.641Z,40.20
2018-12-20T02:20:49.299Z,39.23
2018-12-20T02:23:16.977Z,36.20
2018-12-20T02:25:44.543Z,37.80
2018-12-20T02:28:12.062Z,40.60
2018-12-20T02:30:39.551Z,37.53
2018-12-20T02:33:07.033Z,42.73
2018-12-20T02:35:34.680Z,36.20
2018-12-20T02:38:02.429Z,38.27
2018-12-20T02:40:30.132Z,37.97
2018-12-20T02:42:57.727Z,32.87
2018-12-20T02:45:25.273Z,41.83
2018-12-20T02:47:52.842Z,38.00
2018-12-20T02:50:20.411Z,34.43
2018-12-20T02:52:48.074Z,34.53
2018-12-20T02:55:15.957Z,41.87
2018-12-20T02:57:43.781Z,34.97
2018-12-20T03:00:11.532Z,33.83
2018-12-20T03:02:39.110Z,36.30
2018-12-20T03:05:06.722Z,35.60
2018-12-20T03:07:34.265Z,40.97
2018-12-20T03:10:01.832Z,37.67
2018-12-20T03:12:29.365Z,36.27
2018-12-20T03:14:56.973Z,34.70
2018-12-20T03:17:24.520Z,40.60
2018-12-20T03:19:52.214Z,33.37
2018-12-20T03:22:19.862Z,35.73
2018-12-20T03:24:47.409Z,36.63
2018-12-20T03:27:14.908Z,37.57
2018-12-20T03:29:42.510Z,36.40
2018-12-20T03:32:10.509Z,35.87
2018-12-20T03:34:38.204Z,36.50
2018-12-20T03:37:05.874Z,30.67
2018-12-20T03:39:33.552Z,39.10
2018-12-20T03:42:01.189Z,39.43
2018-12-20T03:44:28.714Z,35.27
2018-12-20T03:46:57.533Z,40.93
2018-12-20T03:49:25.215Z,37.37
2018-12-20T03:51:52.899Z,34.27
2018-12-20T03:54:20.437Z,39.77
2018-12-20T03:56:48.050Z,34.10
2018-12-20T03:59:15.931Z,41.60
2018-12-20T04:01:43.541Z,39.87
2018-12-20T04:04:11.028Z,40.50
2018-12-20T04:06:38.558Z,37.10
2018-12-20T04:09:06.692Z,38.13
2018-12-20T04:11:34.270Z,43.00
2018-12-20T04:14:01.842Z,36.20
2018-12-20T04:16:29.350Z,34.90
2018-12-20T04:18:57.295Z,41.60
2018-12-20T04:21:24.847Z,37.80
2018-12-20T04:23:52.386Z,46.30
2018-12-20T04:26:20.370Z,37.33
2018-12-20T04:28:48.044Z,38.97
2018-12-20T04:31:16.679Z,40.67
2018-12-20T04:33:44.274Z,36.27
2018-12-20T04:36:11.914Z,41.03
2018-12-20T04:38:39.790Z,37.83
2018-12-20T04:41:07.573Z,40.27
2018-12-20T04:43:35.178Z,41.27
2018-12-20T04:46:02.881Z,39.43
2018-12-20T04:48:30.501Z,38.87
2018-12-20T04:50:58.568Z,37.23
2018-12-20T04:53:26.245Z,42.83
2018-12-20T04:55:54.027Z,40.43
2018-12-20T04:58:21.698Z,39.07
2018-12-20T05:00:49.569Z,34.33
2018-12-20T05:03:17.602Z,32.77
2018-12-20T05:05:45.390Z,40.80
2018-12-20T05:08:13.332Z,36.00
2018-12-20T05:10:41.022Z,40.83
2018-12-20T05:13:08.874Z,37.23
2018-12-20T05:15:36.472Z,36.13
2018-12-20T05:18:06.236Z,35.17
2018-12-20T05:20:33.759Z,36.07
2018-12-20T05:23:01.328Z,36.93
2018-12-20T05:25:28.959Z,41.67
2018-12-20T05:27:56.521Z,36.33
2018-12-20T05:30:24.013Z,32.97
2018-12-20T05:32:51.684Z,39.03
2018-12-20T05:35:19.524Z,35.00
2018-12-20T05:37:47.199Z,37.63
2018-12-20T05:40:14.795Z,34.23
2018-12-20T05:42:42.506Z,34.47
2018-12-20T05:45:10.073Z,37.23
2018-12-20T05:47:37.659Z,40.70
2018-12-20T05:50:06.600Z,34.83
2018-12-20T05:52:34.240Z,34.50
2018-12-20T05:55:01.916Z,40.77
2018-12-20T05:57:30.010Z,35.83
2018-12-20T05:59:57.521Z,37.13
2018-12-20T06:02:25.415Z,40.17
2018-12-20T06:04:53.151Z,37.23
2018-12-20T06:07:20.769Z,38.80
2018-12-20T06:09:48.539Z,35.57
2018-12-20T06:12:16.205Z,35.03
2018-12-20T06:14:43.992Z,33.47
2018-12-20T06:17:11.658Z,35.20
2018-12-20T06:19:39.443Z,37.90
2018-12-20T06:22:07.049Z,37.40
2018-12-20T06:24:34.540Z,34.73
2018-12-20T06:27:02.032Z,40.23
2018-12-20T06:29:29.518Z,39.90
2018-12-20T06:31:57.007Z,39.93
2018-12-20T06:34:24.494Z,50.33
2018-12-20T06:36:51.985Z,36.23
2018-12-20T06:39:19.473Z,41.57
2018-12-20T06:41:46.952Z,44.10
2018-12-20T06:44:14.457Z,33.47
2018-12-20T06:46:47.637Z,37.30
2018-12-20T06:49:15.128Z,40.50
2018-12-20T06:51:42.624Z,36.73
2018-12-20T06:54:10.113Z,37.77
2018-12-20T06:56:37.611Z,43.63
2018-12-20T06:59:05.179Z,42.37
2018-12-20T07:01:32.672Z,41.27
2018-12-20T07:04:00.161Z,41.17
2018-12-20T07:06:27.654Z,37.90
2018-12-20T07:08:55.136Z,37.40
2018-12-20T07:11:22.627Z,37.77
2018-12-20T07:13:50.111Z,41.83
2018-12-20T07:16:17.620Z,42.07
2018-12-20T07:18:45.133Z,44.30
2018-12-20T07:21:12.626Z,45.37
2018-12-20T07:23:40.111Z,41.63
2018-12-20T07:26:07.606Z,45.70
2018-12-20T07:28:35.093Z,43.87
2018-12-20T07:31:02.580Z,48.63
2018-12-20T07:33:30.086Z,43.53
2018-12-20T07:35:57.571Z,36.77
2018-12-20T07:38:25.053Z,45.30
2018-12-20T07:40:52.544Z,42.77
2018-12-20T07:43:20.037Z,43.20
2018-12-20T07:45:47.521Z,42.87
2018-12-20T07:48:15.009Z,46.73
2018-12-20T07:50:42.513Z,43.20
2018-12-20T07:53:10.001Z,49.47
2018-12-20T07:55:37.580Z,45.57
2018-12-20T07:58:05.088Z,41.90
2018-12-20T08:00:33.951Z,45.43
2018-12-20T08:03:01.508Z,48.47
2018-12-20T08:05:28.999Z,46.80
2018-12-20T08:07:56.597Z,56.50
2018-12-20T08:10:24.084Z,50.63
2018-12-20T08:12:51.569Z,51.20
2018-12-20T08:15:19.053Z,57.87
2018-12-20T08:17:46.534Z,58.93
2018-12-20T08:20:14.022Z,51.00
2018-12-20T08:22:41.501Z,52.07
2018-12-20T08:25:09.192Z,40.97
2018-12-20T08:27:36.691Z,45.37
2018-12-20T08:30:05.216Z,47.20
2018-12-20T08:32:32.704Z,43.77
2018-12-20T08:35:00.189Z,44.93
2018-12-20T08:37:27.677Z,43.83
2018-12-20T08:39:55.160Z,46.93
2018-12-20T08:42:22.649Z,48.23
2018-12-20T08:44:50.132Z,39.17
2018-12-20T08:47:17.625Z,52.67
2018-12-20T08:49:45.186Z,44.90
2018-12-20T08:52:12.665Z,47.00
2018-12-20T08:54:40.150Z,46.37
2018-12-20T08:57:07.631Z,49.63
2018-12-20T08:59:35.113Z,47.23
2018-12-20T09:02:02.598Z,48.57
2018-12-20T09:04:30.088Z,50.93
2018-12-20T09:06:57.616Z,52.97
2018-12-20T09:09:25.126Z,44.60
2018-12-20T09:11:52.698Z,45.90
2018-12-20T09:14:20.184Z,44.07
2018-12-20T09:16:47.669Z,43.63
2018-12-20T09:19:15.152Z,48.83
2018-12-20T09:21:42.639Z,44.37
2018-12-20T09:24:10.121Z,46.43
2018-12-20T09:26:37.597Z,46.63
2018-12-20T09:29:05.081Z,46.47
2018-12-20T09:31:32.572Z,52.53
2018-12-20T09:34:00.174Z,48.43
2018-12-20T09:36:27.648Z,52.40
2018-12-20T09:38:55.130Z,53.70
2018-12-20T09:41:22.609Z,51.90
2018-12-20T09:43:50.088Z,46.53
2018-12-20T09:46:17.641Z,55.50
2018-12-20T09:48:46.367Z,46.30
2018-12-20T09:51:14.194Z,59.80
2018-12-20T09:53:41.673Z,51.43
2018-12-20T09:56:09.155Z,43.80
2018-12-20T09:58:36.716Z,46.50
2018-12-20T10:01:04.201Z,47.60
2018-12-20T10:03:31.681Z,42.23
2018-12-20T10:05:59.164Z,49.50
2018-12-20T10:08:26.650Z,40.87
2018-12-20T10:10:54.243Z,37.47
2018-12-20T10:13:21.730Z,37.37
2018-12-20T10:15:49.288Z,41.97
2018-12-20T10:18:16.768Z,43.20
2018-12-20T10:20:44.249Z,45.33
2018-12-20T10:23:11.803Z,44.37
2018-12-20T10:25:39.285Z,47.07
2018-12-20T10:28:06.764Z,50.00
2018-12-20T10:30:34.282Z,43.63
2018-12-20T10:33:01.887Z,42.00
2018-12-20T10:35:29.440Z,43.77
2018-12-20T10:37:57.033Z,40.97
2018-12-20T10:40:24.512Z,33.70
2018-12-20T10:42:51.989Z,34.83
2018-12-20T10:45:19.474Z,32.50
2018-12-20T10:47:46.953Z,36.30
2018-12-20T10:50:14.442Z,33.60
2018-12-20T10:52:41.924Z,37.13
2018-12-20T10:55:09.577Z,39.33
2018-12-20T10:57:37.137Z,41.20
2018-12-20T11:00:06.784Z,39.47
2018-12-20T11:02:40.016Z,37.27
2018-12-20T11:05:22.748Z,44.00
2018-12-20T11:07:56.881Z,46.97
2018-12-20T11:10:28.060Z,41.80
2018-12-20T11:12:55.544Z,46.33
2018-12-20T11:15:23.025Z,43.97
2018-12-20T11:17:50.512Z,42.57
2018-12-20T11:20:18.000Z,47.90
2018-12-20T11:22:45.666Z,48.60
2018-12-20T11:25:13.235Z,47.63
2018-12-20T11:27:40.716Z,43.37
2018-12-20T11:30:08.916Z,45.50
2018-12-20T11:32:36.393Z,42.33
2018-12-20T11:35:04.335Z,46.37
2018-12-20T11:37:31.885Z,39.30
2018-12-20T11:39:59.933Z,34.27
2018-12-20T11:42:27.564Z,38.77
2018-12-20T11:44:55.126Z,40.33
2018-12-20T11:47:28.600Z,38.57
2018-12-20T11:49:56.080Z,40.20
2018-12-20T11:52:23.564Z,36.63
2018-12-20T11:54:51.048Z,35.13
2018-12-20T11:57:18.533Z,40.93
2018-12-20T11:59:46.009Z,33.93
2018-12-20T12:02:13.492Z,36.37
2018-12-20T12:04:40.968Z,36.40
2018-12-20T12:07:08.453Z,34.10
2018-12-20T12:09:35.933Z,35.03
2018-12-20T12:12:03.677Z,36.57
2018-12-20T12:14:31.152Z,36.67
2018-12-20T12:16:58.628Z,34.10
2018-12-20T12:19:26.113Z,33.50
2018-12-20T12:21:53.597Z,30.80
2018-12-20T12:24:21.077Z,31.57
2018-12-20T12:26:48.560Z,28.10
2018-12-20T12:29:16.045Z,26.50
2018-12-20T12:31:43.516Z,24.37
2018-12-20T12:34:11.001Z,32.13
2018-12-20T12:36:38.544Z,26.80
2018-12-20T12:39:07.378Z,27.43
2018-12-20T12:41:34.935Z,23.10
2018-12-20T12:44:02.416Z,25.63
2018-12-20T12:46:29.913Z,21.60
2018-12-20T12:48:57.393Z,26.77
2018-12-20T12:51:24.877Z,25.87
2018-12-20T12:53:52.432Z,25.33
2018-12-20T12:56:19.913Z,27.60
2018-12-20T12:58:47.405Z,23.50
2018-12-20T13:01:15.131Z,24.60
2018-12-20T13:03:42.613Z,28.87
2018-12-20T13:06:10.097Z,30.90
2018-12-20T13:08:37.580Z,37.40
2018-12-20T13:11:05.060Z,35.53
2018-12-20T13:13:32.535Z,38.43
2018-12-20T13:16:00.023Z,43.20
2018-12-20T13:18:27.507Z,40.10
2018-12-20T13:20:55.055Z,36.93
2018-12-20T13:23:22.615Z,38.90
2018-12-20T13:25:50.108Z,37.67
2018-12-20T13:28:17.708Z,34.43
2018-12-20T13:30:45.197Z,38.87
2018-12-20T13:33:12.675Z,41.43
2018-12-20T13:35:40.157Z,44.33
2018-12-20T13:38:07.636Z,40.50
2018-12-20T13:40:35.121Z,45.10
2018-12-20T13:43:02.597Z,42.93
2018-12-20T13:45:30.080Z,43.13
2018-12-20T13:47:57.565Z,44.77
2018-12-20T13:50:25.056Z,37.87
2018-12-20T13:52:53.817Z,43.70
2018-12-20T13:55:21.640Z,53.67
2018-12-20T13:57:49.116Z,52.53
2018-12-20T14:00:16.596Z,53.47
2018-12-20T14:02:44.224Z,46.43
2018-12-20T14:05:11.781Z,45.40
2018-12-20T14:07:39.261Z,49.87
2018-12-20T14:10:06.888Z,47.67
2018-12-20T14:12:34.383Z,45.57
2018-12-20T14:15:01.861Z,46.33
2018-12-20T14:17:29.373Z,47.33
2018-12-20T14:19:56.938Z,49.67
2018-12-20T14:22:24.495Z,45.37
2018-12-20T14:24:51.981Z,48.67
2018-12-20T14:27:19.454Z,45.80
2018-12-20T14:29:46.933Z,42.87
2018-12-20T14:32:14.416Z,43.07
2018-12-20T14:34:41.892Z,45.90
2018-12-20T14:37:09.377Z,46.83
2018-12-20T14:39:36.860Z,49.83
2018-12-20T14:42:04.412Z,51.70
2018-12-20T14:44:31.892Z,51.23
2018-12-20T14:46:59.373Z,55.47
2018-12-20T14:49:26.870Z,53.50
2018-12-20T14:51:54.352Z,50.20
2018-12-20T14:54:21.836Z,49.70
2018-12-20T14:56:49.317Z,50.10
2018-12-20T14:59:16.879Z,52.23
2018-12-20T15:01:44.360Z,51.80
2018-12-20T15:04:11.848Z,54.10
2018-12-20T15:06:39.329Z,55.03
2018-12-20T15:09:07.192Z,53.10
2018-12-20T15:11:34.676Z,56.80
2018-12-20T15:14:02.166Z,55.13
2018-12-20T15:16:29.648Z,48.70
2018-12-20T15:18:57.123Z,52.00
2018-12-20T15:21:24.680Z,64.13
2018-12-20T15:23:52.164Z,47.27
2018-12-20T15:26:19.651Z,58.30
2018-12-20T15:28:47.128Z,62.17
2018-12-20T15:31:14.761Z,65.37
2018-12-20T15:33:42.245Z,62.07
2018-12-20T15:36:09.729Z,54.30
2018-12-20T15:38:37.208Z,46.60
2018-12-20T15:41:04.689Z,52.87
2018-12-20T15:43:32.393Z,52.27
2018-12-20T15:45:59.909Z,55.03
2018-12-20T15:48:27.390Z,51.20
2018-12-20T15:50:54.879Z,49.47
2018-12-20T15:53:22.425Z,54.80
2018-12-20T15:55:49.905Z,54.00
2018-12-20T15:58:17.396Z,84.43
2018-12-20T16:00:44.881Z,62.40
2018-12-20T16:03:12.362Z,54.60
2018-12-20T16:05:39.840Z,51.70
2018-12-20T16:08:07.323Z,49.90
2018-12-20T16:10:34.796Z,49.67
2018-12-20T16:13:02.319Z,50.90
2018-12-20T16:15:29.822Z,53.60
2018-12-20T16:17:57.305Z,58.30
2018-12-20T16:20:24.793Z,51.90
2018-12-20T16:22:52.269Z,55.50
2018-12-20T16:25:19.764Z,53.17
2018-12-20T16:27:47.244Z,56.57
2018-12-20T16:30:14.720Z,50.63
2018-12-20T16:32:42.203Z,48.50
2018-12-20T16:35:09.738Z,58.77
2018-12-20T16:37:37.272Z,56.03
2018-12-20T16:40:05.505Z,51.43
2018-12-20T16:42:32.988Z,54.97
2018-12-20T16:45:00.493Z,50.30
2018-12-20T16:47:28.053Z,55.83
2018-12-20T16:49:55.537Z,64.63
2018-12-20T16:52:23.024Z,60.23
2018-12-20T16:54:50.504Z,62.67
2018-12-20T16:57:17.993Z,53.77
2018-12-20T16:59:45.489Z,58.77
2018-12-20T17:02:13.000Z,58.13
2018-12-20T17:04:40.480Z,58.17
2018-12-20T17:07:07.964Z,56.20
2018-12-20T17:09:35.452Z,67.23
2018-12-20T17:12:02.936Z,66.33
2018-12-20T17:14:30.429Z,59.53
2018-12-20T17:16:57.981Z,54.93
2018-12-20T17:19:25.460Z,59.50
2018-12-20T17:21:53.048Z,66.77
2018-12-20T17:24:20.532Z,58.10
2018-12-20T17:26:48.040Z,60.87
2018-12-20T17:29:15.531Z,57.10
2018-12-20T17:31:43.011Z,64.60
2018-12-20T17:34:10.489Z,66.93
2018-12-20T17:36:37.969Z,59.70
2018-12-20T17:39:06.800Z,55.50
2018-12-20T17:41:34.284Z,60.10
2018-12-20T17:44:03.329Z,57.27
2018-12-20T17:46:30.849Z,58.67
2018-12-20T17:48:58.330Z,62.57
2018-12-20T17:51:25.809Z,60.33
2018-12-20T17:53:53.289Z,61.90
2018-12-20T17:56:20.769Z,56.40
2018-12-20T17:58:48.252Z,67.77
2018-12-20T18:01:15.812Z,75.27
2018-12-20T18:03:43.297Z,68.57
2018-12-20T18:06:10.780Z,62.20
2018-12-20T18:08:38.261Z,66.30
2018-12-20T18:11:05.736Z,58.70
2018-12-20T18:13:33.220Z,61.63
2018-12-20T18:16:00.697Z,67.20
2018-12-20T18:18:28.183Z,57.10
2018-12-20T18:20:55.732Z,54.63
2018-12-20T18:23:23.252Z,51.50
2018-12-20T18:25:50.732Z,65.90
2018-12-20T18:28:18.216Z,57.53
2018-12-20T18:30:45.693Z,74.73
2018-12-20T18:33:13.176Z,65.57
2018-12-20T18:35:40.657Z,64.90
2018-12-20T18:38:08.141Z,67.17
2018-12-20T18:40:35.633Z,68.77
2018-12-20T18:43:03.181Z,61.17
2018-12-20T18:45:30.837Z,66.93
2018-12-20T18:47:58.323Z,69.87
2018-12-20T18:50:25.805Z,81.07
2018-12-20T18:52:53.287Z,68.27
2018-12-20T18:55:20.772Z,87.70
2018-12-20T18:57:48.248Z,79.77
2018-12-20T19:00:15.814Z,69.23
2018-12-20T19:02:43.299Z,60.83
2018-12-20T19:05:10.777Z,63.77
2018-12-20T19:07:38.256Z,58.53
2018-12-20T19:10:06.404Z,59.23
2018-12-20T19:12:33.973Z,63.67
2018-12-20T19:15:01.449Z,61.40
2018-12-20T19:17:28.928Z,61.43
2018-12-20T19:19:56.635Z,61.83
2018-12-20T19:22:24.318Z,58.43
2018-12-20T19:24:51.803Z,66.33
2018-12-20T19:27:19.280Z,56.37
2018-12-20T19:29:46.762Z,56.80
2018-12-20T19:32:14.246Z,62.13
2018-12-20T19:34:41.729Z,66.20
2018-12-20T19:37:09.212Z,59.50
2018-12-20T19:39:37.053Z,47.13
2018-12-20T19:42:06.594Z,40.77
2018-12-20T19:44:34.076Z,63.80
2018-12-20T19:47:01.569Z,65.70
2018-12-20T19:49:29.058Z,62.50
2018-12-20T19:51:56.536Z,45.63
2018-12-20T19:54:24.017Z,51.53
2018-12-20T19:56:51.511Z,41.10
2018-12-20T19:59:19.012Z,46.40
2018-12-20T20:01:46.632Z,47.57
2018-12-20T20:04:14.210Z,41.83
2018-12-20T20:06:41.696Z,49.27
2018-12-20T20:09:09.180Z,55.67
2018-12-20T20:11:36.660Z,48.30
2018-12-20T20:14:04.336Z,47.60
2018-12-20T20:16:31.829Z,52.23
2018-12-20T20:18:59.316Z,49.60
2018-12-20T20:21:26.801Z,45.90
2018-12-20T20:23:54.293Z,51.43
2018-12-20T20:26:21.787Z,59.70
2018-12-20T20:28:49.277Z,58.63
2018-12-20T20:31:16.777Z,56.50
2018-12-20T20:33:44.280Z,63.87
2018-12-20T20:36:11.769Z,82.63
2018-12-20T20:38:39.341Z,107.30
2018-12-20T20:41:06.831Z,232.23
2018-12-20T20:43:34.328Z,381.07
2018-12-20T20:46:01.820Z,365.17
2018-12-20T20:48:30.558Z,568.43
2018-12-20T20:50:58.220Z,404.90
2018-12-20T20:53:25.717Z,348.13
2018-12-20T20:55:53.202Z,373.50
2018-12-20T20:58:20.688Z,323.30
2018-12-20T21:00:48.177Z,234.70
2018-12-20T21:03:15.668Z,64.13
2018-12-20T21:05:43.164Z,76.07
2018-12-20T21:08:10.653Z,58.10
2018-12-20T21:10:38.148Z,61.07
2018-12-20T21:13:05.636Z,34.50
2018-12-20T21:15:33.126Z,25.60
2018-12-20T21:18:00.616Z,24.60
2018-12-20T21:20:30.907Z,41.97
2018-12-20T21:22:58.440Z,51.63
2018-12-20T21:25:25.927Z,49.30
2018-12-20T21:27:53.425Z,45.77
2018-12-20T21:30:21.012Z,41.27
2018-12-20T21:32:48.520Z,44.80
2018-12-20T21:35:16.012Z,48.10
2018-12-20T21:37:43.500Z,131.07
2018-12-20T21:40:10.988Z,84.53
2018-12-20T21:42:38.488Z,317.67
2018-12-20T21:45:06.645Z,457.67
2018-12-20T21:47:34.160Z,177.87
2018-12-20T21:50:01.973Z,230.90
2018-12-20T21:52:29.538Z,186.63
2018-12-20T21:54:57.024Z,257.77
2018-12-20T21:57:24.524Z,101.33
2018-12-20T21:59:52.021Z,90.30
2018-12-20T22:02:19.517Z,61.90
2018-12-20T22:04:47.007Z,75.73
2018-12-20T22:07:14.497Z,117.93
2018-12-20T22:09:41.992Z,297.03
2018-12-20T22:12:09.497Z,165.03
2018-12-20T22:14:36.986Z,135.70
2018-12-20T22:17:04.498Z,240.63
2018-12-20T22:19:31.986Z,62.70
2018-12-20T22:21:59.472Z,27.13
2018-12-20T22:24:26.963Z,32.17
2018-12-20T22:26:54.449Z,27.30
2018-12-20T22:29:21.940Z,66.60
2018-12-20T22:31:49.441Z,104.13
2018-12-20T22:34:16.927Z,124.70
2018-12-20T22:36:44.426Z,149.27
2018-12-20T22:39:12.023Z,75.97
2018-12-20T22:41:39.530Z,66.73
2018-12-20T22:44:07.024Z,30.53
2018-12-20T22:46:34.516Z,26.43
2018-12-20T22:49:02.081Z,35.67
2018-12-20T22:51:29.572Z,68.83
2018-12-20T22:53:57.065Z,70.00
2018-12-20T22:56:24.561Z,58.77
2018-12-20T22:58:52.048Z,83.37
2018-12-20T23:01:19.548Z,101.70
2018-12-20T23:03:47.040Z,277.23
2018-12-20T23:06:14.532Z,105.57
2018-12-20T23:08:42.025Z,167.60
2018-12-20T23:11:09.520Z,145.00
2018-12-20T23:13:37.013Z,206.60
2018-12-20T23:16:04.588Z,86.40
2018-12-20T23:18:32.192Z,22.37
2018-12-20T23:21:04.853Z,34.60
2018-12-20T23:23:29.184Z,26.60
2018-12-20T23:25:56.684Z,26.60
2018-12-20T23:28:24.173Z,17.57
2018-12-20T23:30:52.005Z,16.50
2018-12-20T23:33:19.524Z,26.53
2018-12-20T23:35:47.021Z,20.20
2018-12-20T23:38:14.513Z,103.70
2018-12-20T23:40:42.000Z,39.30
2018-12-20T23:43:09.492Z,35.90
2018-12-20T23:45:36.981Z,33.20
2018-12-20T23:48:04.472Z,21.93
2018-12-20T23:50:31.982Z,159.97
2018-12-20T23:52:59.469Z,13.00
2018-12-20T23:55:26.968Z,19.37
2018-12-20T23:57:54.457Z,15.90
